Time;durP1;ratioP1;P1;durP2;ratioP2;P2;SDS_P1;SDS_P2;PMS_P1;PMS_P2;Temp;Humidity;BMP_temperature;BMP_pressure;BME280_temperature;BME280_humidity;BME280_pressure;Samples;Min_cycle;Max_cycle;Signal;HPM_P1;HPM_P2
2022/07/29 00:00:22;;;;;;;;;7.00;6.00;;;;;-145.45;100.00;57426.63;5061919;28;45308;-74
2022/07/29 00:02:47;;;;;;;;;6.00;6.00;;;;;-145.45;100.00;57426.63;5080591;28;44694;-72
2022/07/29 00:05:13;;;;;;;;;7.67;5.67;;;;;-145.45;100.00;57426.63;5080145;28;45164;-73
2022/07/29 00:07:39;;;;;;;;;8.00;6.00;;;;;-145.45;100.00;57426.63;5080260;27;45471;-72
2022/07/29 00:10:05;;;;;;;;;7.67;7.67;;;;;-145.45;100.00;57426.63;5079822;27;45379;-73
2022/07/29 00:12:30;;;;;;;;;11.33;10.33;;;;;-145.45;100.00;57426.63;5080214;28;45275;-73
2022/07/29 00:14:56;;;;;;;;;9.67;8.67;;;;;-145.45;100.00;57426.63;5078714;27;45948;-73
2022/07/29 00:17:23;;;;;;;;;12.00;8.67;;;;;-145.45;100.00;57426.63;5080139;28;46466;-72
2022/07/29 00:19:48;;;;;;;;;11.67;8.67;;;;;-145.45;100.00;57426.63;5079915;28;45521;-73
2022/07/29 00:22:14;;;;;;;;;8.67;8.33;;;;;-145.45;100.00;57426.63;5080241;28;45296;-72
2022/07/29 00:24:39;;;;;;;;;10.00;8.33;;;;;-145.45;100.00;57426.63;5079536;28;45256;-73
2022/07/29 00:27:04;;;;;;;;;9.33;8.00;;;;;-145.45;100.00;57426.63;5079838;28;46624;-73
2022/07/29 00:29:30;;;;;;;;;7.00;7.00;;;;;-145.45;100.00;57426.63;5079821;28;45186;-72
2022/07/29 00:31:55;;;;;;;;;10.33;9.00;;;;;-145.45;100.00;57426.63;5080135;28;45557;-73
2022/07/29 00:37:04;;;;;;;;;8.00;7.00;;;;;-145.45;100.00;57426.63;5079141;28;45862;-73
2022/07/29 00:39:29;;;;;;;;;7.33;7.33;;;;;-145.45;100.00;57426.63;5079410;28;45249;-73
2022/07/29 00:41:55;;;;;;;;;8.00;8.00;;;;;-145.45;100.00;57426.63;5079923;28;45673;-73
2022/07/29 00:44:20;;;;;;;;;6.67;6.67;;;;;-145.45;100.00;57426.63;5079621;28;45522;-73
2022/07/29 00:46:46;;;;;;;;;6.33;6.33;;;;;-145.45;100.00;57426.63;5061906;28;46456;-72
2022/07/29 00:49:11;;;;;;;;;9.67;9.00;;;;;-145.45;100.00;57426.63;5079714;27;45253;-73
2022/07/29 00:51:37;;;;;;;;;8.33;7.33;;;;;-145.45;100.00;57426.63;5078585;28;45278;-72
2022/07/29 00:54:04;;;;;;;;;9.00;7.67;;;;;-145.45;100.00;57426.63;5078593;28;45244;-72
2022/07/29 00:56:32;;;;;;;;;6.00;5.33;;;;;-145.45;100.00;57426.63;5078896;27;45426;-73
2022/07/29 00:58:59;;;;;;;;;9.00;7.50;;;;;-145.45;100.00;57426.63;5079577;28;45400;-72
2022/07/29 01:01:25;;;;;;;;;9.00;9.00;;;;;-145.45;100.00;57426.63;5079657;27;45494;-72
2022/07/29 01:03:50;;;;;;;;;5.33;5.33;;;;;-145.45;100.00;57426.63;5079270;28;45463;-73
2022/07/29 01:06:17;;;;;;;;;8.67;7.00;;;;;-145.45;100.00;57426.63;5061397;28;47370;-73
2022/07/29 01:08:45;;;;;;;;;7.67;7.67;;;;;-145.45;100.00;57426.63;5079563;27;45190;-73
2022/07/29 01:11:10;;;;;;;;;7.67;7.67;;;;;-145.45;100.00;57426.63;5079202;27;45301;-72
2022/07/29 01:13:36;;;;;;;;;7.33;7.00;;;;;-145.45;100.00;57426.63;5079252;28;45312;-73
2022/07/29 01:16:10;;;;;;;;;9.00;8.00;;;;;-145.45;100.00;57426.63;5079290;28;45328;-73
2022/07/29 01:18:41;;;;;;;;;8.67;8.33;;;;;-145.45;100.00;57426.63;5079114;28;45290;-73
2022/07/29 01:21:23;;;;;;;;;12.67;10.00;;;;;-145.45;100.00;57426.63;5079467;28;45229;-73
2022/07/29 01:24:21;;;;;;;;;11.00;9.00;;;;;-145.45;100.00;57426.63;5087565;27;45273;-73
2022/07/29 01:26:52;;;;;;;;;10.67;10.67;;;;;-145.45;100.00;57426.63;5092922;27;46183;-73
2022/07/29 01:29:26;;;;;;;;;10.33;10.33;;;;;-145.45;100.00;57426.63;5078946;28;45339;-73
2022/07/29 01:32:07;;;;;;;;;12.00;10.00;;;;;-145.45;100.00;57426.63;5079358;28;45434;-72
2022/07/29 01:34:52;;;;;;;;;13.00;13.00;;;;;-145.45;100.00;57426.63;5083311;27;45230;-73
2022/07/29 01:37:24;;;;;;;;;12.67;12.00;;;;;-145.45;100.00;57426.63;5078803;28;45256;-73
2022/07/29 01:39:52;;;;;;;;;12.00;12.00;;;;;-145.45;100.00;57426.63;5085849;27;45363;-73
2022/07/29 01:42:27;;;;;;;;;10.00;10.00;;;;;-145.45;100.00;57426.63;5099402;27;45245;-73
2022/07/29 01:45:10;;;;;;;;;11.00;11.00;;;;;-145.45;100.00;57426.63;5099287;27;45229;-73
2022/07/29 01:47:46;;;;;;;;;9.00;9.00;;;;;-145.45;100.00;57426.63;5099329;27;45241;-72
2022/07/29 01:50:16;;;;;;;;;13.67;10.67;;;;;-145.45;100.00;57426.63;5101551;27;45255;-73
2022/07/29 01:52:57;;;;;;;;;12.33;9.67;;;;;-145.45;100.00;57426.63;5102764;27;45319;-73
2022/07/29 01:55:28;;;;;;;;;12.00;9.33;;;;;-145.45;100.00;57426.63;5102546;27;45236;-73
2022/07/29 01:57:56;;;;;;;;;12.67;11.33;;;;;-145.45;100.00;57426.63;5102820;27;45287;-73
2022/07/29 02:00:22;;;;;;;;;9.67;9.67;;;;;-145.45;100.00;57426.63;5102547;27;45475;-73
2022/07/29 02:02:50;;;;;;;;;9.33;9.33;;;;;-145.45;100.00;57426.63;5102745;27;45252;-72
2022/07/29 02:05:18;;;;;;;;;12.33;10.67;;;;;-145.45;100.00;57426.63;5102383;27;45304;-73
2022/07/29 02:07:47;;;;;;;;;11.33;10.00;;;;;-145.45;100.00;57426.63;5101761;27;45370;-72
2022/07/29 02:10:14;;;;;;;;;13.33;11.00;;;;;-145.45;100.00;57426.63;5102348;27;45791;-72
2022/07/29 02:12:43;;;;;;;;;13.00;8.33;;;;;-145.45;100.00;57426.63;5102637;27;45294;-73
2022/07/29 02:15:10;;;;;;;;;11.00;7.00;;;;;-145.45;100.00;57426.63;5102276;27;45498;-73
2022/07/29 02:17:42;;;;;;;;;9.33;9.33;;;;;-145.45;100.00;57426.63;5102292;27;45422;-72
2022/07/29 02:20:09;;;;;;;;;11.33;10.00;;;;;-145.45;100.00;57426.63;5102379;27;45479;-72
2022/07/29 02:22:38;;;;;;;;;11.00;10.33;;;;;-145.45;100.00;57426.63;5102536;27;45296;-73
2022/07/29 02:25:05;;;;;;;;;10.00;10.00;;;;;-145.45;100.00;57426.63;5101743;27;45631;-73
2022/07/29 02:27:33;;;;;;;;;12.33;9.00;;;;;-145.45;100.00;57426.63;5089526;27;45494;-72
2022/07/29 02:30:01;;;;;;;;;9.33;9.00;;;;;-145.45;100.00;57426.63;5081747;27;45344;-72
2022/07/29 02:32:29;;;;;;;;;7.00;7.00;;;;;-145.45;100.00;57426.63;5081954;27;45175;-72
2022/07/29 02:34:56;;;;;;;;;9.67;9.67;;;;;-145.45;100.00;57426.63;5086179;27;45252;-73
2022/07/29 02:37:24;;;;;;;;;12.33;9.00;;;;;-145.45;100.00;57426.63;5081527;28;46177;-72
2022/07/29 02:39:53;;;;;;;;;10.67;9.00;;;;;-145.45;100.00;57426.63;5088107;27;45316;-72
2022/07/29 02:42:22;;;;;;;;;9.33;9.00;;;;;-145.45;100.00;57426.63;5101611;27;45249;-72
2022/07/29 02:44:48;;;;;;;;;8.00;8.00;;;;;-145.45;100.00;57426.63;5101984;27;45230;-72
2022/07/29 02:47:19;;;;;;;;;10.67;8.33;;;;;-145.45;100.00;57426.63;5101889;27;45410;-72
2022/07/29 02:49:56;;;;;;;;;9.00;8.00;;;;;-145.45;100.00;57426.63;5101971;27;45224;-72
2022/07/29 02:52:26;;;;;;;;;9.67;7.00;;;;;-145.45;100.00;57426.63;5101853;27;45364;-72
2022/07/29 02:54:59;;;;;;;;;8.67;8.00;;;;;-145.45;100.00;57426.63;5101512;27;45870;-72
2022/07/29 02:57:33;;;;;;;;;7.00;7.00;;;;;-145.45;100.00;57426.63;5101439;27;47489;-72
2022/07/29 03:00:05;;;;;;;;;7.67;7.67;;;;;-145.45;100.00;57426.63;5082860;27;45383;-72
2022/07/29 03:02:35;;;;;;;;;8.00;8.00;;;;;-145.45;100.00;57426.63;5083483;27;45340;-73
2022/07/29 03:05:02;;;;;;;;;10.67;9.67;;;;;-145.45;100.00;57426.63;5101471;27;45258;-73
2022/07/29 03:07:29;;;;;;;;;9.00;8.00;;;;;-145.45;100.00;57426.63;5101514;27;45322;-73
2022/07/29 03:09:55;;;;;;;;;7.67;7.67;;;;;-145.45;100.00;57426.63;5101344;27;45266;-72
2022/07/29 03:12:21;;;;;;;;;8.67;8.67;;;;;-145.45;100.00;57426.63;5082849;27;45422;-72
2022/07/29 03:14:48;;;;;;;;;8.67;7.33;;;;;-145.45;100.00;57426.63;5101353;27;45234;-72
2022/07/29 03:17:15;;;;;;;;;9.67;8.00;;;;;-145.45;100.00;57426.63;5100590;27;46083;-72
2022/07/29 03:19:40;;;;;;;;;5.33;5.33;;;;;-145.45;100.00;57426.63;5101456;27;45299;-73
2022/07/29 03:22:06;;;;;;;;;12.00;9.67;;;;;-145.45;100.00;57426.63;5101503;27;45425;-73
2022/07/29 03:24:34;;;;;;;;;6.33;6.33;;;;;-145.45;100.00;57426.63;5101082;27;45236;-73
2022/07/29 03:26:59;;;;;;;;;8.33;8.33;;;;;-145.45;100.00;57426.63;5079259;28;47234;-73
2022/07/29 03:29:25;;;;;;;;;9.67;9.00;;;;;-145.45;100.00;57426.63;5080780;27;45310;-72
2022/07/29 03:31:50;;;;;;;;;8.00;8.00;;;;;-145.45;100.00;57426.63;5081020;28;45335;-73
2022/07/29 03:34:16;;;;;;;;;10.00;8.00;;;;;-145.45;100.00;57426.63;5085764;27;45376;-73
2022/07/29 03:36:41;;;;;;;;;9.00;9.00;;;;;-145.45;100.00;57426.63;5080656;28;46483;-73
2022/07/29 03:39:08;;;;;;;;;9.33;8.33;;;;;-145.45;100.00;57426.63;5080453;28;45260;-73
2022/07/29 03:41:36;;;;;;;;;10.00;9.00;;;;;-145.45;100.00;57426.63;5080979;28;45330;-73
2022/07/29 03:44:03;;;;;;;;;7.00;7.00;;;;;-145.45;100.00;57426.63;5080391;28;45374;-73
2022/07/29 03:46:32;;;;;;;;;7.00;6.67;;;;;-145.45;100.00;57426.63;5080633;28;46365;-73
2022/07/29 03:49:01;;;;;;;;;8.00;8.00;;;;;-145.45;100.00;57426.63;5080401;27;45274;-73
2022/07/29 03:51:26;;;;;;;;;6.00;6.00;;;;;-145.45;100.00;57426.63;5061971;28;45266;-73
2022/07/29 03:53:52;;;;;;;;;10.00;8.67;;;;;-145.45;100.00;57426.63;5080112;27;45550;-72
2022/07/29 03:56:21;;;;;;;;;10.33;7.67;;;;;-145.45;100.00;57426.63;5080409;27;45228;-73
2022/07/29 03:58:48;;;;;;;;;9.00;8.00;;;;;-145.45;100.00;57426.63;5080360;27;45474;-73
2022/07/29 04:01:14;;;;;;;;;8.33;8.00;;;;;-145.45;100.00;57426.63;5080403;27;45315;-73
2022/07/29 04:03:40;;;;;;;;;6.67;6.67;;;;;-145.45;100.00;57426.63;5080007;27;45702;-73
2022/07/29 04:06:07;;;;;;;;;6.67;6.67;;;;;-145.45;100.00;57426.63;5080205;28;45240;-73
2022/07/29 04:08:33;;;;;;;;;6.33;6.33;;;;;-145.45;100.00;57426.63;5079633;27;45256;-73
2022/07/29 04:10:59;;;;;;;;;8.00;8.00;;;;;-145.45;100.00;57426.63;5080066;28;45259;-72
2022/07/29 04:13:24;;;;;;;;;9.00;8.00;;;;;-145.45;100.00;57426.63;5073564;28;45967;-72
2022/07/29 04:15:50;;;;;;;;;8.33;7.67;;;;;-145.45;100.00;57426.63;5080172;28;45248;-73
2022/07/29 04:18:15;;;;;;;;;8.67;8.33;;;;;-145.45;100.00;57426.63;5079970;27;45282;-73
2022/07/29 04:20:41;;;;;;;;;7.00;7.00;;;;;-145.45;100.00;57426.63;5080255;28;45280;-73
2022/07/29 04:23:06;;;;;;;;;7.33;7.33;;;;;-145.45;100.00;57426.63;5079843;28;45313;-72
2022/07/29 04:25:31;;;;;;;;;7.67;7.67;;;;;-145.45;100.00;57426.63;5061361;28;48062;-73
2022/07/29 04:28:00;;;;;;;;;10.00;9.00;;;;;-145.45;100.00;57426.63;5079951;28;45295;-73
2022/07/29 04:30:25;;;;;;;;;7.67;7.67;;;;;-145.45;100.00;57426.63;5080096;28;45305;-72
2022/07/29 04:32:51;;;;;;;;;10.00;10.00;;;;;-145.45;100.00;57426.63;5061415;28;45820;-73
2022/07/29 04:35:17;;;;;;;;;10.33;8.67;;;;;-145.45;100.00;57426.63;5084324;27;46432;-72
2022/07/29 04:37:42;;;;;;;;;9.00;8.67;;;;;-145.45;100.00;57426.63;5079615;27;45233;-72
2022/07/29 04:40:08;;;;;;;;;11.67;10.00;;;;;-145.45;100.00;57426.63;5079907;28;45174;-72
2022/07/29 04:42:33;;;;;;;;;11.00;11.00;;;;;-145.45;100.00;57426.63;5079440;28;45225;-72
2022/07/29 04:44:58;;;;;;;;;13.00;12.00;;;;;-145.45;100.00;57426.63;5079739;28;46609;-73
2022/07/29 04:47:24;;;;;;;;;11.33;10.00;;;;;-145.45;100.00;57426.63;5079562;27;45193;-73
2022/07/29 04:49:49;;;;;;;;;10.00;10.00;;;;;-145.45;100.00;57426.63;5080154;28;45485;-73
2022/07/29 04:52:14;;;;;;;;;9.67;8.67;;;;;-145.45;100.00;57426.63;5079643;28;45398;-72
2022/07/29 04:54:40;;;;;;;;;10.00;7.33;;;;;-145.45;100.00;57426.63;5079296;28;45338;-72
2022/07/29 04:57:05;;;;;;;;;10.00;8.33;;;;;-145.45;100.00;57426.63;5079445;28;45789;-72
2022/07/29 04:59:30;;;;;;;;;8.33;7.33;;;;;-145.45;100.00;57426.63;5079765;28;45336;-72
2022/07/29 05:01:56;;;;;;;;;8.00;8.00;;;;;-145.45;100.00;57426.63;5079503;28;45324;-73
2022/07/29 05:04:21;;;;;;;;;6.00;6.00;;;;;-145.45;100.00;57426.63;5079464;28;47354;-73
2022/07/29 05:06:47;;;;;;;;;6.67;6.00;;;;;-145.45;100.00;57426.63;5079331;28;45257;-73
2022/07/29 05:09:12;;;;;;;;;8.00;7.33;;;;;-145.45;100.00;57426.63;5079445;27;45293;-72
2022/07/29 05:11:37;;;;;;;;;8.00;8.00;;;;;-145.45;100.00;57426.63;5061015;27;47188;-73
2022/07/29 05:14:02;;;;;;;;;10.00;10.00;;;;;-145.45;100.00;57426.63;5079417;27;45245;-72
2022/07/29 05:16:28;;;;;;;;;9.33;8.33;;;;;-145.45;100.00;57426.63;5079495;27;45275;-72
2022/07/29 05:18:53;;;;;;;;;9.00;8.67;;;;;-145.45;100.00;57426.63;5079753;28;45338;-72
2022/07/29 05:21:18;;;;;;;;;9.00;7.00;;;;;-145.45;100.00;57426.63;5079195;28;45498;-72
2022/07/29 05:23:44;;;;;;;;;8.67;7.67;;;;;-145.45;100.00;57426.63;5080988;27;45304;-72
2022/07/29 05:26:09;;;;;;;;;8.00;6.67;;;;;-145.45;100.00;57426.63;5082617;27;45320;-72
2022/07/29 05:28:34;;;;;;;;;8.00;8.00;;;;;-145.45;100.00;57426.63;5083133;27;45315;-73
2022/07/29 05:31:00;;;;;;;;;10.00;7.00;;;;;-145.45;100.00;57426.63;5082682;27;45581;-72
2022/07/29 05:33:25;;;;;;;;;8.00;8.00;;;;;-145.45;100.00;57426.63;5082872;28;45249;-73
2022/07/29 05:35:51;;;;;;;;;9.33;7.67;;;;;-145.45;100.00;57426.63;5083188;27;45999;-73
2022/07/29 05:38:16;;;;;;;;;7.67;7.67;;;;;-145.45;100.00;57426.63;5103479;27;45206;-73
2022/07/29 05:40:41;;;;;;;;;10.67;8.67;;;;;-145.45;100.00;57426.63;5102552;27;47017;-73
2022/07/29 05:43:07;;;;;;;;;8.00;8.00;;;;;-145.45;100.00;57426.63;5103138;27;45400;-72
2022/07/29 05:45:32;;;;;;;;;9.00;7.33;;;;;-145.45;100.00;57426.63;5103045;27;45166;-73
2022/07/29 05:47:58;;;;;;;;;6.33;6.00;;;;;-145.45;100.00;57426.63;5103310;27;45232;-72
2022/07/29 05:50:24;;;;;;;;;10.67;8.33;;;;;-145.45;100.00;57426.63;5084479;27;45627;-74
2022/07/29 05:52:49;;;;;;;;;8.00;8.00;;;;;-145.45;100.00;57426.63;5103020;27;45299;-73
2022/07/29 05:55:15;;;;;;;;;10.00;8.00;;;;;-145.45;100.00;57426.63;5102564;27;45211;-72
2022/07/29 05:57:40;;;;;;;;;8.00;8.00;;;;;-145.45;100.00;57426.63;5102908;27;45457;-72
2022/07/29 06:00:06;;;;;;;;;8.00;6.67;;;;;-145.45;100.00;57426.63;5102098;27;45348;-72
2022/07/29 06:02:31;;;;;;;;;8.00;6.33;;;;;-145.45;100.00;57426.63;5083831;27;47461;-72
2022/07/29 06:04:57;;;;;;;;;7.33;6.00;;;;;-145.45;100.00;57426.63;5084289;27;45732;-72
2022/07/29 06:07:22;;;;;;;;;6.33;6.33;;;;;-145.45;100.00;57426.63;5084254;27;46008;-72
2022/07/29 06:09:47;;;;;;;;;5.67;5.33;;;;;-145.45;100.00;57426.63;5102536;27;45390;-72
2022/07/29 06:12:13;;;;;;;;;9.67;8.33;;;;;-145.45;100.00;57426.63;5102510;27;45210;-72
2022/07/29 06:14:38;;;;;;;;;5.67;5.67;;;;;-145.45;100.00;57426.63;5102596;27;45382;-73
2022/07/29 06:17:05;;;;;;;;;7.00;5.33;;;;;-145.45;100.00;57426.63;5102744;27;45331;-72
2022/07/29 06:19:30;;;;;;;;;6.00;5.67;;;;;-145.45;100.00;57426.63;5102469;27;45517;-72
2022/07/29 06:21:55;;;;;;;;;8.33;6.67;;;;;-145.45;100.00;57426.63;5083514;27;46585;-72
2022/07/29 06:24:21;;;;;;;;;10.00;6.00;;;;;-145.45;100.00;57426.63;5102249;27;45391;-73
2022/07/29 06:26:46;;;;;;;;;6.67;6.67;;;;;-145.45;100.00;57426.63;5096110;27;45288;-72
2022/07/29 06:29:11;;;;;;;;;8.00;8.00;;;;;-145.45;100.00;57426.63;5081934;28;45438;-72
2022/07/29 06:31:38;;;;;;;;;6.67;6.67;;;;;-145.45;100.00;57426.63;5081753;27;45242;-72
2022/07/29 06:34:04;;;;;;;;;8.00;8.00;;;;;-145.45;100.00;57426.63;5085912;27;45411;-72
2022/07/29 06:36:29;;;;;;;;;7.00;7.00;;;;;-145.45;100.00;57426.63;5080406;27;45225;-72
2022/07/29 06:38:55;;;;;;;;;9.33;7.33;;;;;-145.45;100.00;57426.63;5081446;28;45224;-72
2022/07/29 06:41:20;;;;;;;;;9.00;9.00;;;;;-145.45;100.00;57426.63;5081541;28;45293;-72
2022/07/29 06:43:45;;;;;;;;;9.00;8.00;;;;;-145.45;100.00;57426.63;5081657;28;45316;-72
2022/07/29 06:46:15;;;;;;;;;8.67;6.00;;;;;-145.45;100.00;57426.63;5081752;27;45253;-72
2022/07/29 06:48:42;;;;;;;;;8.00;8.00;;;;;-145.45;100.00;57426.63;5081696;28;45569;-72
2022/07/29 06:51:08;;;;;;;;;6.67;6.67;;;;;-145.45;100.00;57426.63;5087292;27;45343;-72
2022/07/29 06:53:35;;;;;;;;;5.00;5.00;;;;;-145.45;100.00;57426.63;5083184;27;45234;-72
2022/07/29 06:56:02;;;;;;;;;8.00;8.00;;;;;-145.45;100.00;57426.63;5101785;27;45280;-72
2022/07/29 06:58:28;;;;;;;;;6.00;6.00;;;;;-145.45;100.00;57426.63;5101781;27;45301;-72
2022/07/29 07:00:56;;;;;;;;;7.00;6.00;;;;;-145.45;100.00;57426.63;5101784;27;45341;-75
2022/07/29 07:03:22;;;;;;;;;6.00;5.67;;;;;-145.45;100.00;57426.63;5100953;27;45244;-72
2022/07/29 07:05:47;;;;;;;;;7.33;6.67;;;;;-145.45;100.00;57426.63;5101874;27;45242;-72
2022/07/29 07:08:13;;;;;;;;;4.33;4.33;;;;;-145.45;100.00;57426.63;5101580;27;45190;-72
2022/07/29 07:10:39;;;;;;;;;7.00;7.00;;;;;-145.45;100.00;57426.63;5101354;27;45264;-73
2022/07/29 07:13:05;;;;;;;;;6.00;6.00;;;;;-145.45;100.00;57426.63;5100093;27;45270;-73
2022/07/29 07:15:30;;;;;;;;;6.00;6.00;;;;;-145.45;100.00;57426.63;5083289;27;45257;-73
2022/07/29 07:17:57;;;;;;;;;5.67;5.67;;;;;-145.45;100.00;57426.63;5082620;27;45271;-73
2022/07/29 07:20:23;;;;;;;;;5.00;4.67;;;;;-145.45;100.00;57426.63;5101565;27;45373;-73
2022/07/29 07:22:48;;;;;;;;;9.00;6.00;;;;;-145.45;100.00;57426.63;5101252;27;45310;-73
2022/07/29 07:25:14;;;;;;;;;8.67;7.67;;;;;-145.45;100.00;57426.63;5101273;27;45323;-73
2022/07/29 07:27:39;;;;;;;;;8.67;7.00;;;;;-145.45;100.00;57426.63;5087388;27;45249;-73
2022/07/29 07:30:06;;;;;;;;;7.00;7.00;;;;;-145.45;100.00;57426.63;5062632;28;48636;-73
2022/07/29 07:32:35;;;;;;;;;7.67;7.67;;;;;-145.45;100.00;57426.63;5080787;28;45593;-73
2022/07/29 07:35:00;;;;;;;;;6.67;5.33;;;;;-145.45;100.00;57426.63;5074535;27;45315;-73
2022/07/29 07:37:26;;;;;;;;;7.33;7.33;;;;;-145.45;100.00;57426.63;5101122;27;45490;-73
2022/07/29 07:39:52;;;;;;;;;10.33;7.00;;;;;-145.45;100.00;57426.63;5100880;27;45312;-73
2022/07/29 07:42:18;;;;;;;;;5.75;5.75;;;;;-145.45;100.00;57426.63;5100917;27;45374;-73
2022/07/29 07:44:45;;;;;;;;;10.50;8.00;;;;;-145.45;100.00;57426.63;5101107;27;45252;-73
2022/07/29 07:47:10;;;;;;;;;6.00;6.00;;;;;-145.45;100.00;57426.63;5099364;27;45442;-73
2022/07/29 07:49:36;;;;;;;;;9.00;7.00;;;;;-145.45;100.00;57426.63;5100745;27;46165;-74
2022/07/29 07:52:01;;;;;;;;;1.75;0.75;;;;;-145.45;100.00;57426.63;5081477;27;45264;-73
2022/07/29 07:54:26;;;;;;;;;7.75;6.00;;;;;-145.45;100.00;57426.63;5100924;27;45184;-73
2022/07/29 07:56:52;;;;;;;;;9.00;7.00;;;;;-145.45;100.00;57426.63;5099964;27;45498;-73
2022/07/29 07:59:17;;;;;;;;;4.75;3.25;;;;;-145.45;100.00;57426.63;5100725;27;49022;-73
2022/07/29 08:01:42;;;;;;;;;5.75;5.75;;;;;-145.45;100.00;57426.63;5100800;27;45264;-73
2022/07/29 08:04:08;;;;;;;;;8.50;6.75;;;;;-145.45;100.00;57426.63;5100867;27;45244;-74
2022/07/29 08:06:37;;;;;;;;;6.00;6.00;;;;;-145.45;100.00;57426.63;5082200;27;46024;-74
2022/07/29 08:09:03;;;;;;;;;7.00;6.00;;;;;-145.45;100.00;57426.63;5100474;27;45473;-74
2022/07/29 08:11:29;;;;;;;;;5.75;5.75;;;;;-145.45;100.00;57426.63;5100478;27;45342;-74
2022/07/29 08:13:55;;;;;;;;;7.25;5.00;;;;;-145.45;100.00;57426.63;5082582;27;45470;-73
2022/07/29 08:16:20;;;;;;;;;6.25;6.25;;;;;-145.45;100.00;57426.63;5082139;27;45440;-73
2022/07/29 08:18:46;;;;;;;;;6.50;4.75;;;;;-145.45;100.00;57426.63;5100565;27;46002;-74
2022/07/29 08:21:13;;;;;;;;;6.50;6.50;;;;;-145.45;100.00;57426.63;5100459;27;45232;-74
2022/07/29 08:23:44;;;;;;;;;7.50;6.00;;;;;-145.45;100.00;57426.63;5100389;27;45346;-74
2022/07/29 08:26:10;;;;;;;;;7.00;6.25;;;;;-145.45;100.00;57426.63;5098976;27;46315;-74
2022/07/29 08:28:49;;;;;;;;;7.00;6.00;;;;;-145.45;100.00;57426.63;5079875;28;45285;-74
2022/07/29 08:31:15;;;;;;;;;5.20;4.80;;;;;-145.45;100.00;57426.63;5061678;28;45225;-74
2022/07/29 08:33:40;;;;;;;;;4.50;4.50;;;;;-145.45;100.00;57426.63;5080678;27;45483;-74
2022/07/29 08:36:06;;;;;;;;;3.75;3.75;;;;;-145.45;100.00;57426.63;5083656;27;45224;-74
2022/07/29 08:38:32;;;;;;;;;6.00;4.25;;;;;-145.45;100.00;57426.63;5079736;28;46090;-74
2022/07/29 08:40:59;;;;;;;;;5.60;4.80;;;;;-145.45;100.00;57426.63;5079597;28;45330;-74
2022/07/29 08:43:25;;;;;;;;;4.50;4.25;;;;;-145.45;100.00;57426.63;5079945;28;45265;-74
2022/07/29 08:45:51;;;;;;;;;4.50;3.00;;;;;-145.45;100.00;57426.63;5079597;27;45400;-74
2022/07/29 08:48:22;;;;;;;;;4.00;4.00;;;;;-145.45;100.00;57426.63;5079798;27;46175;-74
2022/07/29 08:50:52;;;;;;;;;4.00;4.00;;;;;-145.45;100.00;57426.63;5079560;27;45284;-74
2022/07/29 08:53:18;;;;;;;;;4.20;4.00;;;;;-145.45;100.00;57426.63;5079787;28;45300;-74
2022/07/29 08:55:46;;;;;;;;;3.50;2.50;;;;;-145.45;100.00;57426.63;5060943;28;45436;-74
2022/07/29 08:58:13;;;;;;;;;4.00;4.00;;;;;-145.45;100.00;57426.63;5080288;28;45347;-74
2022/07/29 09:00:45;;;;;;;;;3.60;3.40;;;;;-145.45;100.00;57426.63;5083250;27;45742;-74
2022/07/29 09:03:14;;;;;;;;;3.40;3.40;;;;;-145.45;100.00;57426.63;5083472;27;45271;-74
2022/07/29 09:05:45;;;;;;;;;3.20;3.20;;;;;-145.45;100.00;57426.63;5083044;28;45415;-74
2022/07/29 09:08:11;;;;;;;;;3.80;3.80;;;;;-145.45;100.00;57426.63;5083109;28;45278;-74
2022/07/29 09:10:37;;;;;;;;;4.00;4.00;;;;;-145.45;100.00;57426.63;5064315;28;45317;-74
2022/07/29 09:13:02;;;;;;;;;4.00;3.00;;;;;-145.45;100.00;57426.63;5083191;28;45315;-74
2022/07/29 09:15:28;;;;;;;;;4.50;3.75;;;;;-145.45;100.00;57426.63;5081639;27;46738;-74
2022/07/29 09:17:55;;;;;;;;;5.25;4.00;;;;;-145.45;100.00;57426.63;5082825;27;45344;-74
2022/07/29 09:20:22;;;;;;;;;3.20;3.20;;;;;-145.45;100.00;57426.63;5083087;28;45324;-74
2022/07/29 09:22:49;;;;;;;;;4.60;3.80;;;;;-145.45;100.00;57426.63;5082799;27;45232;-74
2022/07/29 09:25:14;;;;;;;;;4.40;3.00;;;;;-145.45;100.00;57426.63;5063955;28;47004;-74
2022/07/29 09:27:40;;;;;;;;;8.00;3.00;;;;;-145.45;100.00;57426.63;5082403;27;45423;-74
2022/07/29 09:30:10;;;;;;;;;1.25;1.25;;;;;-145.45;100.00;57426.63;5082965;27;45293;-74
2022/07/29 09:33:00;;;;;;;;;2.20;2.20;;;;;-145.45;100.00;57426.63;5075340;27;45331;-74
2022/07/29 09:35:27;;;;;;;;;3.00;3.00;;;;;-145.45;100.00;57426.63;5087506;27;45229;-74
2022/07/29 09:37:53;;;;;;;;;2.00;2.00;;;;;-145.45;100.00;57426.63;5082273;27;45478;-74
2022/07/29 09:40:20;;;;;;;;;2.80;2.60;;;;;-145.45;100.00;57426.63;5082586;28;45324;-74
2022/07/29 09:42:46;;;;;;;;;2.60;2.60;;;;;-145.45;100.00;57426.63;5063841;28;45293;-74
2022/07/29 09:45:25;;;;;;;;;6.20;3.40;;;;;-145.45;100.00;57426.63;5064225;28;46133;-74
2022/07/29 09:47:50;;;;;;;;;2.00;2.00;;;;;-145.45;100.00;57426.63;5082375;27;45178;-74
2022/07/29 09:50:18;;;;;;;;;2.75;2.50;;;;;-145.45;100.00;57426.63;5082599;28;45256;-74
2022/07/29 09:52:46;;;;;;;;;4.60;3.40;;;;;-145.45;100.00;57426.63;5070544;27;45288;-74
2022/07/29 09:55:12;;;;;;;;;4.20;2.40;;;;;-145.45;100.00;57426.63;5102616;27;45528;-74
2022/07/29 09:57:37;;;;;;;;;2.25;2.25;;;;;-145.45;100.00;57426.63;5102527;27;46596;-74
2022/07/29 10:00:08;;;;;;;;;2.00;2.00;;;;;-145.45;100.00;57426.63;5102939;27;45240;-74
2022/07/29 10:02:36;;;;;;;;;6.60;3.60;;;;;-145.45;100.00;57426.63;5102941;27;45306;-74
2022/07/29 10:05:05;;;;;;;;;3.40;3.40;;;;;-145.45;100.00;57426.63;5102304;27;45486;-74
2022/07/29 10:07:48;;;;;;;;;3.00;3.00;;;;;-145.45;100.00;57426.63;5102623;27;45276;-74
2022/07/29 10:10:24;;;;;;;;;3.20;3.20;;;;;-145.45;100.00;57426.63;5082817;27;45211;-74
2022/07/29 10:12:55;;;;;;;;;3.00;2.60;;;;;-145.45;100.00;57426.63;5102807;27;45418;-74
2022/07/29 10:15:23;;;;;;;;;2.00;1.80;;;;;-145.45;100.00;57426.63;5102493;27;45323;-74
2022/07/29 10:17:50;;;;;;;;;2.40;1.60;;;;;-145.45;100.00;57426.63;5101903;27;46527;-74
2022/07/29 10:20:16;;;;;;;;;1.80;1.80;;;;;-145.45;100.00;57426.63;5102354;27;45405;-74
2022/07/29 10:22:43;;;;;;;;;1.60;1.00;;;;;-145.45;100.00;57426.63;5101829;27;45304;-74
2022/07/29 10:25:10;;;;;;;;;1.60;1.60;;;;;-145.45;100.00;57426.63;5101881;27;46069;-74
2022/07/29 10:27:36;;;;;;;;;1.80;1.80;;;;;-145.45;100.00;57426.63;5088948;27;46493;-74
2022/07/29 10:30:04;;;;;;;;;1.20;1.20;;;;;-145.45;100.00;57426.63;5081844;27;45347;-74
2022/07/29 10:32:36;;;;;;;;;2.00;2.00;;;;;-145.45;100.00;57426.63;5081912;27;45301;-74
2022/07/29 10:35:20;;;;;;;;;2.00;2.00;;;;;-145.45;100.00;57426.63;5086154;27;45313;-74
2022/07/29 10:37:52;;;;;;;;;3.80;3.00;;;;;-145.45;100.00;57426.63;5081581;28;45345;-75
2022/07/29 10:43:28;;;;;;;;;2.20;2.20;;;;;-145.45;100.00;57426.63;5090403;27;45365;-74
2022/07/29 10:45:59;;;;;;;;;2.60;1.20;;;;;-145.45;100.00;57426.63;5102070;27;45337;-74
2022/07/29 10:48:25;;;;;;;;;3.00;3.00;;;;;-145.45;100.00;57426.63;5102138;27;45513;-74
2022/07/29 10:50:58;;;;;;;;;2.00;2.00;;;;;-145.45;100.00;57426.63;5082727;27;45339;-75
2022/07/29 10:53:24;;;;;;;;;2.00;2.00;;;;;-145.45;100.00;57426.63;5083030;27;45434;-74
2022/07/29 10:55:51;;;;;;;;;4.60;2.00;;;;;-145.45;100.00;57426.63;5100840;27;45542;-74
2022/07/29 10:58:21;;;;;;;;;3.00;3.00;;;;;-145.45;100.00;57426.63;5083068;27;47587;-74
2022/07/29 11:00:48;;;;;;;;;1.60;1.60;;;;;-145.45;100.00;57426.63;5083345;27;45242;-74
2022/07/29 11:03:46;;;;;;;;;4.00;2.00;;;;;-145.45;100.00;57426.63;5101784;27;45277;-74
2022/07/29 11:06:12;;;;;;;;;2.00;2.00;;;;;-145.45;100.00;57426.63;5083439;27;46175;-75
2022/07/29 11:08:38;;;;;;;;;2.00;2.00;;;;;-145.45;100.00;57426.63;5101391;27;45226;-75
2022/07/29 11:11:18;;;;;;;;;6.00;3.00;;;;;-145.45;100.00;57426.63;5101565;27;45228;-75
2022/07/29 11:13:46;;;;;;;;;2.20;2.20;;;;;-145.45;100.00;57426.63;5101653;27;45249;-72